createdAt,value
2022-11-22T05:20:43.762Z,4.59
2022-11-22T05:23:10.099Z,4.81
2022-11-22T05:25:36.463Z,4.92
2022-11-22T05:28:03.074Z,4.90
2022-11-22T05:30:29.439Z,4.96
2022-11-22T05:32:55.792Z,4.92
2022-11-22T05:35:22.149Z,5.07
2022-11-22T05:37:48.527Z,5.33
2022-11-22T05:40:14.838Z,5.64
2022-11-22T05:42:41.255Z,5.98
2022-11-22T05:45:07.598Z,6.32
2022-11-22T05:47:33.978Z,6.58
2022-11-22T05:50:00.341Z,6.68
2022-11-22T05:52:26.684Z,7.09
2022-11-22T05:54:53.002Z,7.32
2022-11-22T05:57:19.366Z,7.62
2022-11-22T05:59:45.667Z,7.74
2022-11-22T06:02:12.161Z,8.05
2022-11-22T06:04:38.414Z,8.32
2022-11-22T06:07:09.769Z,8.48
2022-11-22T06:09:31.304Z,8.71
2022-11-22T06:11:57.516Z,8.78
2022-11-22T06:14:23.865Z,8.87
2022-11-22T06:16:50.199Z,9.08
2022-11-22T06:19:16.555Z,9.17
2022-11-22T06:21:43.017Z,9.32
2022-11-22T06:24:09.374Z,9.27
2022-11-22T06:26:39.292Z,9.09
2022-11-22T06:29:02.187Z,8.73
2022-11-22T06:31:28.503Z,8.71
2022-11-22T06:33:54.837Z,8.73
2022-11-22T06:36:21.309Z,8.37
2022-11-22T06:38:47.668Z,8.25
2022-11-22T06:41:14.000Z,7.88
2022-11-22T06:43:43.780Z,7.75
2022-11-22T06:46:06.776Z,7.61
2022-11-22T06:48:33.166Z,8.13
2022-11-22T06:50:59.508Z,8.02
2022-11-22T06:53:45.684Z,8.11
2022-11-22T06:55:56.846Z,8.37
2022-11-22T06:58:18.543Z,8.78
2022-11-22T07:00:44.976Z,9.06
2022-11-22T07:03:11.209Z,9.55
2022-11-22T07:05:37.597Z,9.95
2022-11-22T07:08:10.388Z,10.26
2022-11-22T07:10:30.415Z,10.30
2022-11-22T07:12:56.672Z,10.45
2022-11-22T07:15:23.028Z,10.61
2022-11-22T07:17:49.423Z,10.96
2022-11-22T07:20:15.786Z,10.81
2022-11-22T07:22:42.110Z,10.33
2022-11-22T07:25:08.488Z,10.06
2022-11-22T07:27:34.840Z,10.48
2022-11-22T07:30:01.227Z,10.91
2022-11-22T07:32:27.541Z,11.18
2022-11-22T07:34:53.935Z,11.02
2022-11-22T07:37:20.301Z,11.07
2022-11-22T07:39:46.655Z,10.87
2022-11-22T07:42:13.008Z,11.16
2022-11-22T07:44:39.350Z,11.32
2022-11-22T07:47:05.734Z,11.65
2022-11-22T07:49:32.427Z,12.04
2022-11-22T07:51:58.491Z,11.27
2022-11-22T07:54:24.857Z,10.16
2022-11-22T07:56:51.196Z,9.82
2022-11-22T07:59:17.539Z,9.78
2022-11-22T08:01:43.913Z,9.67
2022-11-22T08:04:10.213Z,9.28
2022-11-22T08:06:36.535Z,8.97
2022-11-22T08:09:02.903Z,8.89
2022-11-22T08:11:29.281Z,9.20
2022-11-22T08:13:55.663Z,9.66
2022-11-22T08:16:21.975Z,9.25
2022-11-22T08:18:48.342Z,8.99
2022-11-22T08:21:14.670Z,8.75
2022-11-22T08:23:41.150Z,8.63
2022-11-22T08:26:07.477Z,8.90
2022-11-22T08:28:33.937Z,8.86
2022-11-22T08:31:00.282Z,8.86
2022-11-22T08:33:26.670Z,8.67
2022-11-22T08:35:53.014Z,8.12
2022-11-22T08:38:19.378Z,8.04
2022-11-22T08:40:45.730Z,7.84
2022-11-22T08:43:12.100Z,7.72
2022-11-22T08:45:38.472Z,7.61
2022-11-22T08:48:04.808Z,7.66
2022-11-22T08:50:31.188Z,7.61
2022-11-22T08:52:57.558Z,7.75
2022-11-22T08:55:23.884Z,7.58
2022-11-22T08:57:50.285Z,7.58
2022-11-22T09:00:16.612Z,7.68
2022-11-22T09:02:42.977Z,7.50
2022-11-22T09:05:09.302Z,7.57
2022-11-22T09:10:02.007Z,7.93
2022-11-22T09:12:28.367Z,8.04
2022-11-22T09:14:54.716Z,8.10
2022-11-22T09:17:21.056Z,7.93
2022-11-22T09:19:47.374Z,7.87
2022-11-22T09:22:13.723Z,7.94
2022-11-22T09:24:40.051Z,8.14
2022-11-22T09:27:06.412Z,8.29
2022-11-22T09:29:33.179Z,8.28
2022-11-22T09:31:59.114Z,8.50
2022-11-22T09:34:25.428Z,8.79
2022-11-22T09:36:51.783Z,9.00
2022-11-22T09:39:18.156Z,9.18
2022-11-22T09:41:44.511Z,9.26
2022-11-22T09:44:10.836Z,9.41
2022-11-22T09:46:37.185Z,9.51
2022-11-22T09:49:03.508Z,9.39
2022-11-22T09:51:29.972Z,9.42
2022-11-22T09:53:56.292Z,9.16
2022-11-22T09:56:22.687Z,8.99
2022-11-22T09:58:49.024Z,9.03
2022-11-22T10:01:15.504Z,9.04
2022-11-22T10:03:41.764Z,8.95
2022-11-22T10:06:08.165Z,9.03
2022-11-22T10:08:34.502Z,8.96
2022-11-22T10:11:00.865Z,8.87
2022-11-22T10:13:27.207Z,8.87
2022-11-22T10:15:53.570Z,8.96
2022-11-22T10:18:19.908Z,9.16
2022-11-22T10:20:48.974Z,9.27
2022-11-22T10:23:12.605Z,9.42
2022-11-22T10:25:38.985Z,9.57
2022-11-22T10:28:05.312Z,9.62
2022-11-22T10:30:31.687Z,9.49
2022-11-22T10:32:58.022Z,9.68
2022-11-22T10:35:24.367Z,9.69
2022-11-22T10:37:50.704Z,9.78
2022-11-22T10:40:17.100Z,9.81
2022-11-22T10:42:43.420Z,9.66
2022-11-22T10:45:09.764Z,9.84
2022-11-22T10:47:36.119Z,9.95
2022-11-22T10:50:02.498Z,10.10
2022-11-22T10:52:28.860Z,9.91
2022-11-22T10:54:55.203Z,9.90
2022-11-22T10:57:21.539Z,9.96
2022-11-22T10:59:47.879Z,9.94
2022-11-22T11:02:14.205Z,9.97
2022-11-22T11:04:40.565Z,9.99
2022-11-22T11:07:14.437Z,9.92
2022-11-22T11:10:10.168Z,9.92
2022-11-22T11:11:59.854Z,9.88
2022-11-22T11:14:26.209Z,9.71
2022-11-22T11:16:52.551Z,9.68
2022-11-22T11:19:18.898Z,9.57
2022-11-22T11:21:45.258Z,9.53
2022-11-22T11:24:11.584Z,9.67
2022-11-22T11:26:37.915Z,9.72
2022-11-22T11:29:04.281Z,9.78
2022-11-22T11:31:30.627Z,9.78
2022-11-22T11:33:57.032Z,9.75
2022-11-22T11:36:23.346Z,9.83
2022-11-22T11:38:49.683Z,9.82
2022-11-22T11:41:16.023Z,9.73
2022-11-22T11:43:42.352Z,9.74
2022-11-22T11:46:08.735Z,9.73
2022-11-22T11:48:35.100Z,9.68
2022-11-22T11:51:01.454Z,9.70
2022-11-22T11:53:27.808Z,9.78
2022-11-22T11:55:54.186Z,9.71
2022-11-22T11:58:20.556Z,9.87
2022-11-22T12:00:46.892Z,9.81
2022-11-22T12:03:13.236Z,9.79
2022-11-22T12:05:39.626Z,9.83
2022-11-22T12:08:05.944Z,9.77
2022-11-22T12:10:32.331Z,9.78
2022-11-22T12:13:04.023Z,9.72
2022-11-22T12:15:25.079Z,9.70
2022-11-22T12:17:51.431Z,9.67
2022-11-22T12:20:17.786Z,9.64
2022-11-22T12:22:50.052Z,9.62
2022-11-22T12:25:31.533Z,9.68
2022-11-22T12:27:36.868Z,9.70
2022-11-22T12:30:03.234Z,9.70
2022-11-22T12:32:29.558Z,9.64
2022-11-22T12:34:55.930Z,9.74
2022-11-22T12:37:22.290Z,9.72
2022-11-22T12:39:48.632Z,9.64
2022-11-22T12:42:20.057Z,9.60
2022-11-22T12:44:41.299Z,9.50
2022-11-22T12:47:07.670Z,9.46
2022-11-22T12:49:34.009Z,9.51
2022-11-22T12:52:00.370Z,9.42
2022-11-22T12:54:26.687Z,9.43
2022-11-22T12:56:53.041Z,9.56
2022-11-22T12:59:19.466Z,9.55
2022-11-22T13:01:45.925Z,9.50
2022-11-22T13:04:12.148Z,9.40
2022-11-22T13:06:38.490Z,9.28
2022-11-22T13:09:04.846Z,9.23
2022-11-22T13:11:31.185Z,9.27
2022-11-22T13:13:57.575Z,9.32
2022-11-22T13:16:23.919Z,9.36
2022-11-22T13:18:50.238Z,9.32
2022-11-22T13:21:16.611Z,9.36
2022-11-22T13:23:42.952Z,9.44
2022-11-22T13:26:14.749Z,9.43
2022-11-22T13:28:35.665Z,9.24
2022-11-22T13:31:02.006Z,9.23
2022-11-22T13:33:28.356Z,9.26
2022-11-22T13:35:54.753Z,9.23
2022-11-22T13:38:21.069Z,9.16
2022-11-22T13:40:47.437Z,9.04
2022-11-22T13:43:17.898Z,9.02
2022-11-22T13:45:40.138Z,9.07
2022-11-22T13:48:06.483Z,9.15
2022-11-22T13:50:32.830Z,9.13
2022-11-22T13:52:59.175Z,8.97
2022-11-22T13:55:25.517Z,8.97
2022-11-22T13:57:51.877Z,9.02
2022-11-22T14:00:18.242Z,9.00
2022-11-22T14:02:44.563Z,9.00
2022-11-22T14:05:10.938Z,9.14
2022-11-22T14:07:37.343Z,9.03
2022-11-22T14:10:03.635Z,9.07
2022-11-22T14:12:29.992Z,9.03
2022-11-22T14:14:56.340Z,8.98
2022-11-22T14:17:22.697Z,9.05
2022-11-22T14:19:49.062Z,9.26
2022-11-22T14:22:15.397Z,9.33
2022-11-22T14:24:41.761Z,9.39
2022-11-22T14:27:08.097Z,9.29
2022-11-22T14:29:34.452Z,9.22
2022-11-22T14:32:00.790Z,9.14
2022-11-22T14:34:27.132Z,9.15
2022-11-22T14:36:53.454Z,9.23
2022-11-22T14:39:19.797Z,9.24
2022-11-22T14:41:46.181Z,9.23
2022-11-22T14:44:12.528Z,9.33
2022-11-22T14:46:52.768Z,9.30
2022-11-22T14:49:05.211Z,9.16
2022-11-22T14:51:32.723Z,9.11
2022-11-22T14:53:57.918Z,9.20
2022-11-22T14:56:24.266Z,9.20
2022-11-22T14:58:50.658Z,9.21
2022-11-22T15:01:16.998Z,9.47
2022-11-22T15:03:43.342Z,9.62
2022-11-22T15:09:16.116Z,9.64
2022-11-22T15:09:17.237Z,9.68
2022-11-22T15:11:02.412Z,9.64
2022-11-22T15:13:28.748Z,9.61
2022-11-22T15:57:26.026Z,9.80
2022-11-22T15:59:49.341Z,9.83
2022-11-22T16:02:15.686Z,9.85
2022-11-22T16:04:42.024Z,9.84
2022-11-22T16:07:08.401Z,9.88
2022-11-22T16:09:34.710Z,9.87
2022-11-22T16:12:01.032Z,9.89
2022-11-22T16:14:27.412Z,9.92
2022-11-22T16:16:53.755Z,9.89
2022-11-22T16:19:20.108Z,9.86
2022-11-22T16:21:46.455Z,9.84
2022-11-22T16:24:12.816Z,9.83
2022-11-22T16:26:39.155Z,9.77
2022-11-22T16:29:05.520Z,9.72
2022-11-22T16:31:31.848Z,9.64
2022-11-22T16:33:58.239Z,9.55
2022-11-22T16:36:24.583Z,9.44
2022-11-22T16:38:50.936Z,9.40
2022-11-22T16:41:17.265Z,9.37
2022-11-22T16:43:43.630Z,9.36
2022-11-22T16:46:09.965Z,9.29
2022-11-22T16:48:36.381Z,9.30
2022-11-22T16:51:02.682Z,9.30
2022-11-22T16:53:29.042Z,9.27
2022-11-22T16:55:55.384Z,9.28
2022-11-22T16:58:21.753Z,9.40
2022-11-22T17:00:48.179Z,9.42
2022-11-22T17:03:14.466Z,9.47
2022-11-22T17:05:40.799Z,9.47
2022-11-22T17:08:07.139Z,9.45
2022-11-22T17:10:33.508Z,9.46
2022-11-22T17:12:59.860Z,9.51
2022-11-22T17:15:26.185Z,9.52
2022-11-22T17:17:52.568Z,9.43
2022-11-22T17:20:18.936Z,9.43
2022-11-22T17:22:45.311Z,9.38
2022-11-22T17:25:11.648Z,9.40
2022-11-22T17:27:38.015Z,9.31
2022-11-22T17:30:04.334Z,9.32
2022-11-22T17:32:30.699Z,9.35
2022-11-22T17:34:57.031Z,9.36
2022-11-22T17:37:23.400Z,9.44
2022-11-22T17:39:49.758Z,9.45
2022-11-22T17:42:16.125Z,9.38
2022-11-22T17:44:42.457Z,9.35
2022-11-22T17:47:08.839Z,9.34
2022-11-22T17:49:35.612Z,9.38
2022-11-22T17:52:01.901Z,9.34
2022-11-22T17:54:28.241Z,9.36
2022-11-22T17:56:54.577Z,9.32
2022-11-22T17:59:20.940Z,9.30
2022-11-22T18:01:47.279Z,9.26
2022-11-22T18:04:13.628Z,9.30
2022-11-22T18:06:39.973Z,9.32
2022-11-22T18:09:06.317Z,9.28
2022-11-22T18:11:32.657Z,9.24
2022-11-22T18:13:59.038Z,9.17
2022-11-22T18:16:25.407Z,9.21
2022-11-22T18:18:59.253Z,9.20
2022-11-22T18:21:18.094Z,9.21
2022-11-22T18:23:44.435Z,9.20
2022-11-22T18:26:41.349Z,9.24
2022-11-22T18:28:37.124Z,9.28
2022-11-22T18:31:03.564Z,9.24
2022-11-22T18:33:33.513Z,9.23
2022-11-22T18:35:56.647Z,9.22
2022-11-22T18:38:22.602Z,9.35
2022-11-22T18:40:48.929Z,9.45
2022-11-22T18:43:15.301Z,9.50
2022-11-22T18:45:41.681Z,9.49
2022-11-22T18:48:08.021Z,9.47
2022-11-22T18:50:34.394Z,9.45
2022-11-22T18:53:00.767Z,9.41
2022-11-22T18:55:27.162Z,9.41
2022-11-22T18:57:53.497Z,9.36
2022-11-22T19:00:19.868Z,9.28
2022-11-22T19:02:46.180Z,9.25
2022-11-22T19:05:12.525Z,9.22
2022-11-22T19:07:38.886Z,9.23
2022-11-22T19:10:05.212Z,9.27
2022-11-22T19:12:31.556Z,9.30
2022-11-22T19:14:57.893Z,9.31
2022-11-22T19:17:24.235Z,9.29
2022-11-22T19:19:50.595Z,9.26
2022-11-22T19:22:16.914Z,9.15
2022-11-22T19:24:47.182Z,9.16
2022-11-22T19:27:09.604Z,9.20
2022-11-22T19:29:36.086Z,9.28
2022-11-22T19:32:02.329Z,9.36
2022-11-22T19:34:28.690Z,9.42
2022-11-22T19:36:55.023Z,9.45
2022-11-22T19:39:21.372Z,9.49
2022-11-22T19:41:47.719Z,9.49
2022-11-22T19:44:14.060Z,9.51
2022-11-22T19:46:40.487Z,9.60
2022-11-22T19:49:06.854Z,9.63
2022-11-22T19:51:33.170Z,9.52
2022-11-22T19:53:59.537Z,9.45
2022-11-22T19:56:25.909Z,9.43
2022-11-22T19:58:52.242Z,9.41
2022-11-22T20:01:18.657Z,9.44
2022-11-22T20:03:44.927Z,9.45
2022-11-22T20:06:11.260Z,9.52
2022-11-22T20:08:37.676Z,9.72
2022-11-22T20:11:04.005Z,9.72
2022-11-22T20:13:30.372Z,9.71
2022-11-22T20:15:56.742Z,9.74
2022-11-22T20:18:23.086Z,10.04
2022-11-22T20:20:49.438Z,9.85
2022-11-22T20:23:15.775Z,9.68
2022-11-22T20:25:42.092Z,9.93
2022-11-22T20:28:08.441Z,10.21
2022-11-22T20:30:34.797Z,10.42
2022-11-22T20:33:01.170Z,10.56
2022-11-22T20:35:27.503Z,10.63
2022-11-22T20:37:53.912Z,10.75
2022-11-22T20:40:20.250Z,10.28
2022-11-22T20:42:46.590Z,9.97
2022-11-22T20:45:12.972Z,9.72
2022-11-22T20:47:39.313Z,9.58
2022-11-22T20:50:05.658Z,9.54
2022-11-22T20:52:32.037Z,9.53
2022-11-22T20:55:04.618Z,9.50
2022-11-22T20:57:24.699Z,9.48
2022-11-22T20:59:51.041Z,9.57
2022-11-22T21:02:17.382Z,9.60
2022-11-22T21:04:43.700Z,9.57
2022-11-22T21:07:10.073Z,9.56
2022-11-22T21:09:36.393Z,9.54
2022-11-22T21:12:02.724Z,9.57
2022-11-22T21:14:29.251Z,9.59
2022-11-22T21:16:55.448Z,9.61
2022-11-22T21:19:21.765Z,9.57
2022-11-22T21:21:48.106Z,9.46
2022-11-22T21:24:14.427Z,9.38
2022-11-22T21:26:40.766Z,9.36
2022-11-22T21:29:10.249Z,9.39
2022-11-22T21:31:33.472Z,9.48
2022-11-22T21:33:59.807Z,9.62
2022-11-22T21:36:26.149Z,9.65
2022-11-22T21:38:52.495Z,9.66
2022-11-22T21:43:50.152Z,9.55
2022-11-22T21:46:11.536Z,9.50
2022-11-22T21:48:37.889Z,9.52
2022-11-22T21:51:04.256Z,9.58
2022-11-22T21:53:30.574Z,9.68
2022-11-22T21:55:56.948Z,9.75
2022-11-22T21:58:23.289Z,9.78
2022-11-22T22:00:49.625Z,9.87
2022-11-22T22:03:15.964Z,9.78
2022-11-22T22:05:42.338Z,9.72
2022-11-22T22:08:08.691Z,9.68
2022-11-22T22:10:35.030Z,9.62
2022-11-22T22:13:01.343Z,9.62
2022-11-22T22:15:27.706Z,9.71
2022-11-22T22:17:54.140Z,9.65
2022-11-22T22:20:20.466Z,9.59
2022-11-22T22:22:46.809Z,9.53
2022-11-22T22:25:13.148Z,9.53
2022-11-22T22:27:39.485Z,9.50
2022-11-22T22:30:05.880Z,9.39
2022-11-22T22:32:32.218Z,9.29
2022-11-22T22:34:58.554Z,9.26
2022-11-22T22:37:24.934Z,9.18
2022-11-22T22:39:51.879Z,9.08
2022-11-22T22:42:17.604Z,9.14
2022-11-22T22:44:43.977Z,9.18
2022-11-22T22:47:10.317Z,9.27
2022-11-22T22:49:36.683Z,9.25
2022-11-22T22:52:03.019Z,9.19
2022-11-22T22:54:29.384Z,9.19
2022-11-22T22:56:55.745Z,9.24
2022-11-22T22:59:22.107Z,9.22
2022-11-22T23:01:48.456Z,9.25
2022-11-22T23:04:14.833Z,9.28
2022-11-22T23:06:41.168Z,9.27
2022-11-22T23:09:07.507Z,9.31
2022-11-22T23:11:33.850Z,9.40
2022-11-22T23:14:00.221Z,9.40
2022-11-22T23:16:26.554Z,9.38
2022-11-22T23:18:52.895Z,9.38
2022-11-22T23:21:19.216Z,9.32
2022-11-22T23:23:45.561Z,9.25
2022-11-22T23:26:11.879Z,9.23
2022-11-22T23:28:38.251Z,9.26
2022-11-22T23:31:04.586Z,9.31
2022-11-22T23:33:30.958Z,9.34
2022-11-22T23:35:57.282Z,9.44
2022-11-22T23:38:23.622Z,9.43
2022-11-22T23:40:49.992Z,9.42
2022-11-22T23:43:16.351Z,9.38
2022-11-22T23:45:42.664Z,9.43
2022-11-22T23:48:09.016Z,9.40
2022-11-22T23:50:37.507Z,9.41
2022-11-22T23:53:01.747Z,9.40
2022-11-22T23:55:28.135Z,9.47
2022-11-22T23:57:54.493Z,9.44
